• Join FlightAware (Why Join?)
  • Login
  • US Flag 
Trick or treat! (Boo!!) 
03:59AM EDT


 

Airport Tracker/Info


-or-


 

Live Flight TrackerFlight Track Log ✈ ASH3738 ✈ 11-May-2013 ✈ KORD - KRDU

Flight Track Log - Related Links

Times and Time Zones

All times are in EDT time to prevent confusion due to time zone crossing. See the ASH3738 flight status page for this flight to view local times or setup timezone preferences in your user account.

Time Position Orientation Groundspeed Altitude Reporting Facility
EDT Latitude Longitude Course Direction KTS MPH feet Rate Location/Type
08:59PM 41.9833 -87.9500 166° South 185 213 2,500  Level Chicago TRACON
09:00PM 41.9167 -87.9500 180° South 282 325 4,400 1,380 Climbing Chicago TRACON
09:02PM 41.8142 -87.8867 155° Southeast 290 334 5,900 1,920 Climbing Chicago Center
09:03PM 41.7419 -87.8264 148° Southeast 303 349 9,200 3,060 Climbing Chicago Center
09:04PM 41.6681 -87.7686 150° Southeast 307 353 12,200 1,980 Climbing Chicago Center
09:05PM 40.8601 -87.4367 166° South  Level FlightAware Approximate
09:05PM 41.5831 -87.6997 149° Southeast 357 411 13,300  Level Chicago Center
09:06PM 41.4903 -87.6250 149° Southeast 384 442 15,600 2,100 Climbing Chicago Center
09:07PM 41.3889 -87.5658 156° South 401 461 17,600 1,860 Climbing Chicago Center
09:08PM 41.2825 -87.5483 173° South 386 444 19,500 1,860 Climbing Chicago Center
09:09PM 41.1728 -87.5267 172° South 393 452 21,400 1,860 Climbing Chicago Center
09:10PM 41.0617 -87.4964 168° South 403 464 23,300 1,620 Climbing Chicago Center
09:11PM 40.9497 -87.4653 168° South 410 472 24,800 1,560 Climbing Chicago Center
09:12PM 40.8114 -87.4300 169° South 420 483 26,600 1,440 Climbing Chicago Center
09:13PM 40.6969 -87.4011 169° South 420 483 27,800 1,080 Climbing Chicago Center
09:14PM 40.5806 -87.3692 168° South 425 489 28,900 1,380 Climbing Chicago Center
09:15PM 40.4644 -87.3378 168° South 428 493 30,700 1,020 Climbing Chicago Center
09:16PM 40.3567 -87.2469 147° Southeast 461 531 31,000 120 Climbing Chicago Center
09:17PM 40.2525 -87.1433 143° Southeast 469 540 31,000  Level Chicago Center
09:18PM 40.1894 -86.9786 117° Southeast 501 577 31,000  Level Chicago Center
09:19PM 40.1264 -86.8092 116° Southeast 515 593 31,000  Level Chicago Center
09:20PM 40.0622 -86.6389 116° Southeast 519 597 31,000  Level Indianapolis Center
09:21PM 39.9989 -86.4686 116° Southeast 520 598 31,000  Level Indianapolis Center
09:22PM 39.9344 -86.2964 116° Southeast 522 601 31,000  Level Indianapolis Center
09:23PM 39.8694 -86.1222 116° Southeast 523 602 31,000  Level Indianapolis Center
09:24PM 39.8042 -85.9511 116° Southeast 522 601 31,000  Level Indianapolis Center
09:25PM 39.7392 -85.7811 116° Southeast 523 602 31,000  Level Indianapolis Center
09:26PM 39.6758 -85.6125 116° Southeast 520 598 31,000  Level Indianapolis Center
09:27PM 39.6106 -85.4461 117° Southeast 519 597 31,000  Level Indianapolis Center
09:28PM 39.5461 -85.2783 116° Southeast 520 598 31,000  Level Indianapolis Center
09:29PM 39.4806 -85.1133 117° Southeast 518 596 31,000  Level Indianapolis Center
09:30PM 39.4164 -84.9486 117° Southeast 515 593 31,000 -60 Level Indianapolis Center
09:31PM 39.3472 -84.7708 117° Southeast 514 592 30,900  Descending Indianapolis Center
09:32PM 39.2814 -84.6050 117° Southeast 515 593 31,000  Climbing Indianapolis Center
09:33PM 39.2161 -84.4400 117° Southeast 514 592 31,000  Level Indianapolis Center
09:34PM 39.1506 -84.2775 117° Southeast 509 586 31,000  Level Indianapolis Center
09:35PM 39.0856 -84.1136 117° Southeast 511 588 31,000  Level Indianapolis Center
09:36PM 39.0186 -83.9531 118° Southeast 508 585 31,000  Level Indianapolis Center
09:37PM 38.9533 -83.7894 117° Southeast 511 588 31,000  Level Indianapolis Center
09:38PM 38.8875 -83.6297 118° Southeast 507 583 31,000  Level Indianapolis Center
09:39PM 38.8219 -83.4714 118° Southeast 503 579 31,000  Level Indianapolis Center
09:40PM 38.7453 -83.2850 118° Southeast 503 579 31,000  Level Indianapolis Center
09:41PM 38.6803 -83.1244 117° Southeast 502 578 31,000  Level Indianapolis Center
09:42PM 38.6150 -82.9683 118° Southeast 500 575 31,000  Level Indianapolis Center
09:43PM 38.5486 -82.8106 118° Southeast 501 577 31,000  Level Indianapolis Center
09:44PM 38.4819 -82.6531 118° Southeast 501 577 31,000  Level Indianapolis Center
09:45PM 38.4144 -82.4953 119° Southeast 504 580 31,000  Level Indianapolis Center
09:46PM 38.3489 -82.3403 118° Southeast 507 583 31,000  Level Indianapolis Center
09:47PM 38.2817 -82.1828 118° Southeast 507 583 31,000  Level Indianapolis Center
09:48PM 38.2156 -82.0278 118° Southeast 503 579 31,000  Level Indianapolis Center
09:49PM 38.1467 -81.8708 119° Southeast 509 586 31,000  Level Indianapolis Center
09:50PM 38.0767 -81.7097 119° Southeast 520 598 31,000  Level Indianapolis Center
09:51PM 38.0061 -81.5492 119° Southeast 524 603 31,000 -360 Level Indianapolis Center
09:52PM 37.9336 -81.3853 119° Southeast 533 613 30,300 -1,020 Descending Indianapolis Center
09:53PM 37.8619 -81.2250 119° Southeast 525 604 29,000 -960 Descending Indianapolis Center
09:54PM 37.8350 -81.1689 121° Southeast 521 600 29,000  Level Washington Center
09:55PM 37.7650 -81.0114 119° Southeast 532 612 29,000  Level Washington Center
09:56PM 37.6967 -80.8594 120° Southeast 520 598 29,000  Level Washington Center
09:57PM 37.6219 -80.7050 121° Southeast 520 598 29,000  Level Washington Center
09:58PM 37.5331 -80.5392 124° Southeast 515 593 29,000  Level Washington Center
09:59PM 37.4494 -80.3922 126° Southeast 520 598 29,000 -720 Level Washington Center
10:00PM 37.3653 -80.2458 126° Southeast 520 598 27,700 -1,380 Descending Washington Center
10:01PM 37.2950 -80.1214 125° Southeast 502 578 26,200 -1,560 Descending Washington Center
10:02PM 37.2094 -80.0094 134° Southeast 472 543 24,600 -1,620 Descending Washington Center
10:03PM 37.1300 -79.9008 133° Southeast 435 501 23,100 -840 Descending Washington Center
10:04PM 37.0425 -79.7839 133° Southeast 420 483 23,000 -900 Descending Washington Center
10:05PM 36.9625 -79.6783 133° Southeast 420 483 21,400 -1,740 Descending Washington Center
10:06PM 36.8886 -79.5808 133° Southeast 408 470 19,600 -2,100 Descending Washington Center
10:07PM 36.8206 -79.4942 134° Southeast 396 456 17,300 -2,220 Descending Washington Center
10:08PM 36.7467 -79.3947 133° Southeast 396 456 15,200 -2,160 Descending Washington Center
10:09PM 36.6744 -79.2978 133° Southeast 391 450 13,000 -2,400 Descending Washington Center
10:09PM 36.6506 -79.2631 131° Southeast 377 434 12,000 -2,700 Descending Washington Center
10:10PM 36.5964 -79.1933 134° Southeast 384 442 10,400 -1,620 Descending Washington Center
10:10PM 36.5500 -79.1367 136° Southeast 373 429 10,000 -420 Descending Washington Center
10:11PM 36.5342 -79.1153 133° Southeast 374 430 10,000  Level Washington Center
10:11PM 36.4819 -79.0458 133° Southeast 358 412 10,000  Level Washington Center
10:12PM 36.4658 -79.0244 133° Southeast 362 417 10,000  Level Washington Center
10:12PM 36.4153 -78.9603 134° Southeast 351 404 10,000  Level Washington Center
10:13PM 36.3911 -78.9333 138° Southeast 354 407 10,000 -720 Level Washington Center
10:13PM 36.3544 -78.8983 142° Southeast 262 302 9,300 -1,200 Descending Washington Center
10:14PM 36.3428 -78.8694 117° Southeast 286 329 8,800 -1,560 Descending Washington Center
10:14PM 36.3275 -78.8172 110° East 258 297 7,900 -1,620 Descending Washington Center
10:15PM 36.3181 -78.7808 108° East 265 305 7,200 -1,680 Descending Washington Center
10:15PM 36.3069 -78.7289 105° East 282 325 6,200 -1,500 Descending Washington Center
10:16PM 36.2956 -78.6872 109° East 273 314 5,700 -1,380 Descending Washington Center
10:16PM 36.2694 -78.6475 129° Southeast 269 310 4,900 -1,440 Descending Washington Center
10:17PM 36.2403 -78.6411 170° South 240 276 4,300 -1,200 Descending Washington Center
10:17PM 36.2050 -78.6397 178° South 226 260 3,700 -1,020 Descending Washington Center
10:18PM 36.1778 -78.6414 183° South 212 244 3,300 -840 Descending Washington Center
10:18PM 36.1442 -78.6478 189° South 232 267 3,000 -360 Descending Washington Center
10:19PM 36.1233 -78.6494 184° South 218 251 3,000  Level Washington Center
10:19PM 36.0919 -78.6533 186° South 176 203 3,000 -300 Level Washington Center
10:20PM 36.0417 -78.6617 188° South 169 194 2,500 -420 Descending Washington Center
10:21PM 35.9892 -78.6725 189° South 169 194 2,200 -180 Descending Washington Center
10:22PM 35.9594 -78.6944 211° Southwest 142 163 2,200 -300 Level Washington Center
10:23PM 35.9397 -78.7269 233° Southwest 106 122 1,700 -540 Descending Washington Center
10:24PM 35.9161 -78.7517 220° Southwest 109 125 1,100 -600 Descending Washington Center
10:26PM 35.8776 -78.7875 90° East  Level Estimated
10:33PM 35.8776 -78.7875 90° East  Level Estimated
10:34PM 35.8776 -78.7875 90° East  Level Estimated
10:35PM 35.8776 -78.7875 90° East  Level Estimated